Time;durP1;ratioP1;P1;durP2;ratioP2;P2;SDS_P1;SDS_P2;PMS_P1;PMS_P2;Temp;Humidity;BMP_temperature;BMP_pressure;BME280_temperature;BME280_humidity;BME280_pressure;Samples;Min_cycle;Max_cycle;Signal;HPM_P1;HPM_P2
2022/05/09 00:02:01;;;;;;;;;;;;;;;11.36;59.65;99562.81;4786525;29;19977;-78
2022/05/09 00:04:26;;;;;;;;;;;;;;;11.26;59.51;99561.19;4786344;30;20209;-78
2022/05/09 00:06:52;;;;;;;;;;;;;;;11.10;60.73;99566.53;4800368;29;19929;-77
2022/05/09 00:09:17;;;;;;;;;;;;;;;11.19;58.90;99556.06;4795332;29;19953;-79
2022/05/09 00:11:43;;;;;;;;;;;;;;;11.12;58.85;99559.56;4792594;29;19930;-78
2022/05/09 00:14:08;;;;;;;;;;;;;;;10.97;58.82;99566.63;4789322;29;19917;-78
2022/05/09 00:16:34;;;;;;;;;;;;;;;11.01;59.71;99565.72;4788197;29;19925;-78
2022/05/09 00:19:04;;;;;;;;;;;;;;;11.12;60.38;99569.94;4790221;29;20304;-78
2022/05/09 00:21:30;;;;;;;;;;;;;;;11.13;57.67;99556.13;4793778;29;19925;-78
2022/05/09 00:23:57;;;;;;;;;;;;;;;10.88;56.87;99559.75;4800076;29;20283;-78
2022/05/09 00:26:22;;;;;;;;;;;;;;;10.87;56.82;99550.25;4786099;29;19921;-78
2022/05/09 00:28:48;;;;;;;;;;;;;;;11.02;57.25;99555.31;4799312;29;19921;-78
2022/05/09 00:31:13;;;;;;;;;;;;;;;11.17;56.42;99556.94;4783759;30;19949;-77
2022/05/09 00:33:39;;;;;;;;;;;;;;;11.10;58.31;99552.69;4771028;30;19917;-78
2022/05/09 00:36:05;;;;;;;;;;;;;;;11.10;59.91;99556.13;4799649;29;19925;-78
2022/05/09 00:38:31;;;;;;;;;;;;;;;11.13;58.77;99553.53;4786920;30;19968;-78
2022/05/09 00:43:41;;;;;;;;;;;;;;;11.18;59.15;99558.69;4794612;29;20309;-78
2022/05/09 00:46:06;;;;;;;;;;;;;;;11.24;59.46;99560.34;4791045;29;20000;-78
2022/05/09 00:48:32;;;;;;;;;;;;;;;11.29;58.28;99562.03;4803181;29;20286;-77
2022/05/09 00:50:57;;;;;;;;;;;;;;;11.13;60.02;99565.63;4790958;29;19924;-78
2022/05/09 00:53:23;;;;;;;;;;;;;;;11.02;60.46;99568.31;4797939;29;19932;-77
2022/05/09 00:55:50;;;;;;;;;;;;;;;10.89;60.67;99562.34;4770704;30;19921;-78
2022/05/09 00:58:25;;;;;;;;;;;;;;;10.82;61.05;99552.88;4787148;29;19983;-78
2022/05/09 01:00:51;;;;;;;;;;;;;;;10.91;61.03;99555.41;4804757;29;19925;-77
2022/05/09 01:03:28;;;;;;;;;;;;;;;10.90;60.69;99556.28;4789010;29;20407;-77
2022/05/09 01:05:53;;;;;;;;;;;;;;;11.05;60.25;99546.66;4785602;29;20108;-79
2022/05/09 01:08:19;;;;;;;;;;;;;;;11.16;59.83;99545.69;4787018;29;20011;-78
2022/05/09 01:10:45;;;;;;;;;;;;;;;10.96;60.42;99545.00;4787030;29;19974;-78
2022/05/09 01:13:11;;;;;;;;;;;;;;;10.80;61.44;99540.78;4785685;29;19925;-77
2022/05/09 01:15:38;;;;;;;;;;;;;;;10.76;61.36;99531.28;4785545;29;19925;-78
2022/05/09 01:18:05;;;;;;;;;;;;;;;10.75;62.07;99539.94;4800423;29;19925;-79
2022/05/09 01:20:32;;;;;;;;;;;;;;;10.92;61.91;99549.34;4797908;29;20289;-77
2022/05/09 01:22:57;;;;;;;;;;;;;;;11.16;59.56;99553.47;4786688;29;19917;-77
2022/05/09 01:25:23;;;;;;;;;;;;;;;11.36;59.02;99549.84;4799195;29;20390;-78
2022/05/09 01:27:49;;;;;;;;;;;;;;;11.16;58.63;99553.47;4796112;29;20036;-78
2022/05/09 01:30:19;;;;;;;;;;;;;;;10.97;59.37;99551.91;4790050;29;19925;-78
2022/05/09 01:33:03;;;;;;;;;;;;;;;11.09;59.12;99554.41;4787245;29;19925;-78
2022/05/09 01:35:34;;;;;;;;;;;;;;;10.98;59.79;99555.34;4802458;29;20004;-77
2022/05/09 01:38:11;;;;;;;;;;;;;;;10.93;60.10;99553.66;4790283;29;19921;-78
2022/05/09 01:40:36;;;;;;;;;;;;;;;10.62;60.62;99549.53;4791169;29;20389;-77
2022/05/09 01:43:02;;;;;;;;;;;;;;;10.56;61.35;99553.03;4806527;29;19925;-78
2022/05/09 01:45:27;;;;;;;;;;;;;;;10.57;60.58;99549.56;4795953;29;19928;-76
2022/05/09 01:50:37;;;;;;;;;;;;;;;10.25;62.03;99541.97;4789926;29;19963;-78
2022/05/09 01:53:03;;;;;;;;;;;;;;;10.19;61.44;99540.22;4801211;29;19964;-78
2022/05/09 01:55:28;;;;;;;;;;;;;;;10.34;62.03;99546.25;4800296;29;19982;-78
2022/05/09 01:57:54;;;;;;;;;;;;;;;10.36;61.76;99545.38;4804429;29;19928;-78
2022/05/09 02:00:19;;;;;;;;;;;;;;;10.52;61.20;99548.72;4801204;29;20378;-79
2022/05/09 02:02:45;;;;;;;;;;;;;;;10.43;60.47;99553.97;4789982;29;19944;-78
2022/05/09 02:05:10;;;;;;;;;;;;;;;10.39;60.95;99567.81;4802162;29;19921;-78
2022/05/09 02:07:36;;;;;;;;;;;;;;;10.35;61.33;99561.78;4798430;29;19917;-78
2022/05/09 02:10:03;;;;;;;;;;;;;;;10.27;61.32;99554.94;4804491;29;20007;-78
2022/05/09 02:12:28;;;;;;;;;;;;;;;10.26;61.06;99566.16;4793832;29;20293;-78
2022/05/09 02:14:55;;;;;;;;;;;;;;;10.39;61.14;99562.63;4794867;29;19925;-76
2022/05/09 02:17:20;;;;;;;;;;;;;;;10.33;59.94;99562.69;4796671;29;19932;-78
2022/05/09 02:19:45;;;;;;;;;;;;;;;10.26;60.41;99550.59;4794387;29;19921;-78
2022/05/09 02:22:11;;;;;;;;;;;;;;;10.40;58.80;99554.88;4794525;29;19928;-78
2022/05/09 02:24:39;;;;;;;;;;;;;;;10.41;59.19;99550.53;4795987;29;19921;-78
2022/05/09 02:27:04;;;;;;;;;;;;;;;10.68;59.31;99563.34;4800729;29;19922;-79
2022/05/09 02:29:31;;;;;;;;;;;;;;;10.73;57.59;99565.06;4796494;29;19943;-77
2022/05/09 02:31:57;;;;;;;;;;;;;;;10.65;56.92;99558.16;4792110;29;19917;-77
2022/05/09 02:34:22;;;;;;;;;;;;;;;10.30;57.01;99552.31;4792611;29;20024;-78
2022/05/09 02:36:48;;;;;;;;;;;;;;;10.16;56.72;99566.16;4794995;29;19999;-78
2022/05/09 02:39:14;;;;;;;;;;;;;;;10.36;55.68;99567.84;4801651;29;19925;-79
2022/05/09 02:41:39;;;;;;;;;;;;;;;10.43;55.37;99572.13;4797071;29;19964;-78
2022/05/09 02:44:05;;;;;;;;;;;;;;;10.72;56.47;99573.69;4794380;29;19925;-78
2022/05/09 02:46:30;;;;;;;;;;;;;;;10.71;55.57;99587.53;4804130;29;20374;-79
2022/05/09 02:48:59;;;;;;;;;;;;;;;10.62;55.40;99581.53;4795959;29;19951;-79
2022/05/09 02:51:25;;;;;;;;;;;;;;;10.62;54.93;99583.25;4801527;29;19921;-79
2022/05/09 02:53:51;;;;;;;;;;;;;;;10.84;56.00;99579.66;4789371;29;19925;-78
2022/05/09 02:56:17;;;;;;;;;;;;;;;10.80;53.87;99577.09;4788660;29;19970;-79
2022/05/09 02:58:42;;;;;;;;;;;;;;;10.76;54.43;99573.66;4775889;30;20424;-79
2022/05/09 03:01:08;;;;;;;;;;;;;;;10.78;55.00;99584.91;4787361;29;19921;-79
2022/05/09 03:06:31;;;;;;;;;;;;;;;10.45;56.14;99583.38;4800831;29;19928;-79
2022/05/09 03:08:57;;;;;;;;;;;;;;;10.68;54.79;99584.09;4796726;29;19917;-78
2022/05/09 03:11:22;;;;;;;;;;;;;;;10.71;55.32;99585.81;4788447;29;19929;-78
2022/05/09 03:13:49;;;;;;;;;;;;;;;10.68;55.59;99581.50;4788089;29;19979;-78
2022/05/09 03:16:15;;;;;;;;;;;;;;;10.56;55.53;99589.34;4804035;29;19961;-77
2022/05/09 03:18:41;;;;;;;;;;;;;;;10.56;56.30;99591.94;4794479;29;19992;-78
2022/05/09 03:21:07;;;;;;;;;;;;;;;10.86;56.19;99592.66;4795366;29;20331;-78
2022/05/09 03:23:32;;;;;;;;;;;;;;;11.17;54.36;99595.88;4792149;29;19921;-78
2022/05/09 03:25:59;;;;;;;;;;;;;;;11.13;54.48;99605.44;4796531;29;19928;-78
2022/05/09 03:28:28;;;;;;;;;;;;;;;11.18;53.74;99608.88;4800947;29;19917;-78
2022/05/09 03:30:54;;;;;;;;;;;;;;;11.13;53.08;99608.03;4795787;29;19929;-78
2022/05/09 03:33:20;;;;;;;;;;;;;;;11.22;53.26;99611.41;4792616;29;20282;-78
2022/05/09 03:35:46;;;;;;;;;;;;;;;11.31;53.79;99621.75;4793982;29;19921;-79
2022/05/09 03:38:11;;;;;;;;;;;;;;;11.48;53.58;99619.00;4794681;29;20371;-79
2022/05/09 03:40:37;;;;;;;;;;;;;;;11.24;52.85;99609.69;4757091;30;19925;-77
2022/05/09 03:43:02;;;;;;;;;;;;;;;10.27;56.62;99617.16;4787987;30;19931;-77
2022/05/09 03:45:28;;;;;;;;;;;;;;;9.68;58.54;99622.44;4789651;29;19922;-78
2022/05/09 03:47:54;;;;;;;;;;;;;;;9.47;58.42;99622.44;4793138;29;19978;-78
2022/05/09 03:50:19;;;;;;;;;;;;;;;9.30;59.51;99624.16;4801757;29;19921;-78
2022/05/09 03:52:45;;;;;;;;;;;;;;;9.26;59.73;99619.88;4788765;29;20298;-77
2022/05/09 03:55:12;;;;;;;;;;;;;;;9.23;58.92;99627.63;4798529;29;19921;-77
2022/05/09 03:57:51;;;;;;;;;;;;;;;9.30;59.27;99632.81;4796614;29;19921;-78
2022/05/09 04:00:18;;;;;;;;;;;;;;;9.22;58.84;99625.91;4797837;29;20377;-77
2022/05/09 04:02:43;;;;;;;;;;;;;;;10.06;56.21;99625.81;4792931;29;20374;-80
2022/05/09 04:05:15;;;;;;;;;;;;;;;10.81;56.08;99631.63;4798338;29;19959;-81
2022/05/09 04:07:42;;;;;;;;;;;;;;;11.45;54.53;99635.47;4802382;29;20019;-81
2022/05/09 04:10:09;;;;;;;;;;;;;;;11.71;53.15;99643.91;4773456;30;19957;-82
2022/05/09 04:12:34;;;;;;;;;;;;;;;11.85;50.83;99645.56;4789487;29;19925;-81
2022/05/09 04:17:44;;;;;;;;;;;;;;;11.63;51.93;99650.91;4785216;29;19925;-82
2022/05/09 04:20:10;;;;;;;;;;;;;;;11.87;51.47;99665.47;4787933;30;19973;-82
2022/05/09 04:22:35;;;;;;;;;;;;;;;11.76;50.17;99651.66;4774213;30;20404;-82
2022/05/09 04:25:00;;;;;;;;;;;;;;;11.86;50.10;99657.66;4789999;29;19917;-81
2022/05/09 04:27:28;;;;;;;;;;;;;;;11.40;51.67;99647.63;4788236;29;20019;-82
2022/05/09 04:29:55;;;;;;;;;;;;;;;11.50;52.11;99648.41;4787882;30;19937;-81
2022/05/09 04:32:20;;;;;;;;;;;;;;;11.77;51.40;99662.91;4773188;30;19921;-82
2022/05/09 04:34:46;;;;;;;;;;;;;;;12.16;51.21;99662.56;4788488;30;19965;-82
2022/05/09 04:37:11;;;;;;;;;;;;;;;12.11;50.88;99676.50;4773095;30;19929;-82
2022/05/09 04:39:37;;;;;;;;;;;;;;;11.87;48.58;99675.00;4764574;30;19924;-81
2022/05/09 04:42:03;;;;;;;;;;;;;;;11.79;49.36;99674.19;4789882;29;20035;-82
2022/05/09 04:44:29;;;;;;;;;;;;;;;12.23;51.09;99683.31;4799958;29;20400;-82
2022/05/09 04:46:54;;;;;;;;;;;;;;;12.00;48.92;99671.41;4790338;29;19921;-82
2022/05/09 04:49:20;;;;;;;;;;;;;;;11.80;50.77;99683.69;4792740;29;20368;-82
2022/05/09 04:51:45;;;;;;;;;;;;;;;11.23;50.69;99685.88;4799297;29;20287;-82
2022/05/09 04:54:11;;;;;;;;;;;;;;;11.65;49.42;99682.94;4774105;29;19921;-83
2022/05/09 04:56:36;;;;;;;;;;;;;;;11.91;50.09;99681.88;4801842;29;19960;-81
2022/05/09 04:59:03;;;;;;;;;;;;;;;11.66;50.01;99681.22;4789364;29;19973;-81
2022/05/09 05:01:29;;;;;;;;;;;;;;;11.53;48.74;99690.84;4801125;29;20322;-82
2022/05/09 05:03:54;;;;;;;;;;;;;;;11.62;49.75;99685.56;4783342;29;19917;-81
2022/05/09 05:06:20;;;;;;;;;;;;;;;11.94;47.61;99694.88;4791179;29;20394;-82
2022/05/09 05:08:45;;;;;;;;;;;;;;;12.31;48.71;99697.09;4807751;29;19917;-82
2022/05/09 05:11:11;;;;;;;;;;;;;;;12.36;47.19;99701.38;4798048;29;19967;-82
2022/05/09 05:13:36;;;;;;;;;;;;;;;12.14;47.25;99685.16;4808849;29;20007;-81
2022/05/09 05:16:02;;;;;;;;;;;;;;;12.21;46.59;99692.00;4797566;29;19921;-82
2022/05/09 05:18:27;;;;;;;;;;;;;;;12.77;48.04;99691.38;4775134;30;19917;-82
2022/05/09 05:20:54;;;;;;;;;;;;;;;12.54;46.79;99695.09;4786864;29;20435;-81
2022/05/09 05:23:19;;;;;;;;;;;;;;;12.80;47.51;99712.16;4795086;29;19922;-82
2022/05/09 05:25:46;;;;;;;;;;;;;;;13.15;45.76;99702.16;4800071;29;19921;-81
2022/05/09 05:28:14;;;;;;;;;;;;;;;13.06;43.50;99707.50;4783079;29;19924;-82
2022/05/09 05:30:40;;;;;;;;;;;;;;;13.06;43.78;99712.69;4804962;29;19925;-81
2022/05/09 05:33:05;;;;;;;;;;;;;;;13.38;43.22;99746.16;4792256;29;19951;-82
2022/05/09 05:35:31;;;;;;;;;;;;;;;13.02;41.81;99731.84;4779223;30;19951;-83
2022/05/09 05:37:57;;;;;;;;;;;;;;;12.94;43.70;99752.75;4784413;30;20301;-83
2022/05/09 05:40:22;;;;;;;;;;;;;;;12.83;41.44;99748.56;4805643;29;20085;-81
2022/05/09 05:42:48;;;;;;;;;;;;;;;12.51;44.64;99734.19;4799243;29;19929;-82
2022/05/09 05:45:14;;;;;;;;;;;;;;;12.06;43.90;99723.38;4796765;29;19932;-81
2022/05/09 05:47:40;;;;;;;;;;;;;;;11.96;45.23;99719.13;4777140;29;19925;-83
2022/05/09 05:50:06;;;;;;;;;;;;;;;11.76;45.29;99732.22;4783481;30;19921;-82
2022/05/09 05:52:32;;;;;;;;;;;;;;;11.93;46.39;99726.94;4789144;30;19988;-81
2022/05/09 05:54:57;;;;;;;;;;;;;;;11.65;44.95;99731.47;4783141;30;19975;-82
2022/05/09 05:57:27;;;;;;;;;;;;;;;10.88;45.99;99736.22;4774282;29;19925;-84
2022/05/09 05:59:57;;;;;;;;;;;;;;;10.76;47.48;99746.66;4787836;29;19921;-82
2022/05/09 06:02:23;;;;;;;;;;;;;;;10.89;46.19;99743.13;4769471;30;19929;-82
2022/05/09 06:04:49;;;;;;;;;;;;;;;11.05;46.65;99738.75;4789948;29;20403;-81
2022/05/09 06:07:14;;;;;;;;;;;;;;;11.06;46.15;99751.72;4792116;29;20020;-82
2022/05/09 06:09:40;;;;;;;;;;;;;;;11.02;46.72;99743.97;4788423;29;19968;-82
2022/05/09 06:12:06;;;;;;;;;;;;;;;11.07;46.98;99753.44;4791138;29;19917;-83
2022/05/09 06:14:31;;;;;;;;;;;;;;;11.14;45.95;99755.16;4792197;29;19950;-81
2022/05/09 06:16:57;;;;;;;;;;;;;;;11.58;44.81;99751.41;4776763;30;20325;-82
2022/05/09 06:19:23;;;;;;;;;;;;;;;11.02;46.44;99750.00;4760652;30;19921;-82
2022/05/09 06:21:49;;;;;;;;;;;;;;;11.26;45.90;99762.00;4790947;30;19921;-84
2022/05/09 06:24:14;;;;;;;;;;;;;;;11.31;46.72;99765.44;4794202;29;19928;-83
2022/05/09 06:26:40;;;;;;;;;;;;;;;10.91;45.85;99762.19;4792273;29;19964;-81
2022/05/09 06:29:06;;;;;;;;;;;;;;;10.94;46.58;99765.59;4793729;29;20357;-82
2022/05/09 06:31:32;;;;;;;;;;;;;;;10.66;47.03;99764.84;4792561;29;20263;-83
2022/05/09 06:33:57;;;;;;;;;;;;;;;10.51;47.36;99757.09;4790439;29;19944;-80
2022/05/09 06:36:23;;;;;;;;;;;;;;;10.37;47.55;99758.88;4790851;29;20401;-81
2022/05/09 06:38:48;;;;;;;;;;;;;;;10.50;47.33;99764.91;4791405;29;19932;-82
2022/05/09 06:41:14;;;;;;;;;;;;;;;10.69;46.50;99761.38;4794457;29;19921;-83
2022/05/09 06:43:40;;;;;;;;;;;;;;;10.98;44.59;99757.81;4785987;30;20386;-83
2022/05/09 06:46:05;;;;;;;;;;;;;;;11.81;44.53;99751.25;4787131;29;20012;-82
2022/05/09 06:48:31;;;;;;;;;;;;;;;12.45;44.33;99750.69;4780458;29;20028;-81
2022/05/09 06:50:56;;;;;;;;;;;;;;;13.25;38.90;99752.41;4792284;30;20003;-82
2022/05/09 06:53:22;;;;;;;;;;;;;;;13.32;40.19;99759.25;4795261;29;19954;-81
2022/05/09 06:55:47;;;;;;;;;;;;;;;13.59;41.68;99746.72;4792125;30;20015;-82
2022/05/09 06:58:16;;;;;;;;;;;;;;;13.72;38.39;99756.94;4797212;29;19933;-83
2022/05/09 07:00:41;;;;;;;;;;;;;;;13.72;37.13;99737.81;4796376;29;19917;-82
2022/05/09 07:03:07;;;;;;;;;;;;;;;13.38;37.72;99737.47;4811384;29;19931;-80
2022/05/09 07:05:33;;;;;;;;;;;;;;;13.65;39.09;99747.50;4810370;29;19917;-82
2022/05/09 07:08:00;;;;;;;;;;;;;;;13.31;36.62;99754.91;4799409;29;20088;-83
2022/05/09 07:10:28;;;;;;;;;;;;;;;13.76;37.35;99743.84;4790954;29;20405;-82
2022/05/09 07:12:55;;;;;;;;;;;;;;;13.48;36.25;99750.34;4785880;29;19925;-82
2022/05/09 07:15:24;;;;;;;;;;;;;;;13.58;38.33;99761.50;4793241;29;19923;-84
2022/05/09 07:17:50;;;;;;;;;;;;;;;13.53;37.52;99763.31;4795783;29;19921;-82
2022/05/09 07:20:16;;;;;;;;;;;;;;;13.87;36.81;99757.56;4805125;29;19965;-82
2022/05/09 07:22:42;;;;;;;;;;;;;;;13.63;37.26;99751.00;4802226;29;20309;-83
2022/05/09 07:25:09;;;;;;;;;;;;;;;13.83;36.55;99761.09;4796080;29;19937;-82
2022/05/09 07:27:36;;;;;;;;;;;;;;;13.74;32.63;99762.09;4777035;30;19921;-81
2022/05/09 07:30:02;;;;;;;;;;;;;;;14.24;34.09;99758.66;4787763;29;20414;-83
2022/05/09 07:32:28;;;;;;;;;;;;;;;14.72;31.83;99755.22;4790515;29;20317;-82
2022/05/09 07:34:53;;;;;;;;;;;;;;;14.78;32.48;99746.41;4791565;29;20037;-82
2022/05/09 07:37:20;;;;;;;;;;;;;;;15.17;33.81;99761.28;4806865;29;19968;-82
2022/05/09 07:39:46;;;;;;;;;;;;;;;15.02;29.07;99774.63;4800413;29;20293;-82
2022/05/09 07:42:12;;;;;;;;;;;;;;;15.61;32.44;99759.41;4770984;29;19925;-85
2022/05/09 07:44:37;;;;;;;;;;;;;;;15.98;31.12;99771.66;4784002;29;20346;-84
2022/05/09 07:47:03;;;;;;;;;;;;;;;16.12;26.58;99766.94;4803706;29;20029;-85
2022/05/09 07:49:29;;;;;;;;;;;;;;;16.56;31.07;99767.56;4779389;30;19947;-84
2022/05/09 07:51:54;;;;;;;;;;;;;;;16.76;30.25;99767.88;4778933;30;20301;-85
2022/05/09 07:54:20;;;;;;;;;;;;;;;17.03;24.60;99776.75;4779117;29;19921;-86
2022/05/09 07:56:46;;;;;;;;;;;;;;;16.92;27.71;99778.81;4803461;29;19921;-83
2022/05/09 07:59:12;;;;;;;;;;;;;;;17.55;25.88;99771.75;4772739;29;19924;-83
2022/05/09 08:01:37;;;;;;;;;;;;;;;17.73;24.25;99770.28;4788214;30;19929;-85
2022/05/09 08:04:03;;;;;;;;;;;;;;;18.36;27.89;99776.13;4778587;30;20330;-82
2022/05/09 08:06:28;;;;;;;;;;;;;;;18.46;27.50;99767.00;4803006;29;20019;-82
2022/05/09 08:08:54;;;;;;;;;;;;;;;18.09;24.27;99791.88;4791761;29;20297;-82
2022/05/09 08:11:21;;;;;;;;;;;;;;;18.29;25.85;99776.34;4771822;29;19929;-83
2022/05/09 08:13:46;;;;;;;;;;;;;;;18.77;24.52;99788.72;4792312;29;19917;-82
2022/05/09 08:16:12;;;;;;;;;;;;;;;18.85;23.53;99774.44;4788076;29;19928;-82
2022/05/09 08:18:38;;;;;;;;;;;;;;;18.55;23.29;99750.94;4805220;29;19917;-82
2022/05/09 08:21:04;;;;;;;;;;;;;;;19.16;26.72;99767.16;4767808;30;20022;-83
2022/05/09 08:23:30;;;;;;;;;;;;;;;19.46;24.98;99772.16;4778200;30;19956;-83
2022/05/09 08:25:56;;;;;;;;;;;;;;;19.46;22.62;99790.56;4790577;30;19964;-83
2022/05/09 08:28:22;;;;;;;;;;;;;;;19.03;21.81;99779.03;4807715;29;19924;-83
2022/05/09 08:30:49;;;;;;;;;;;;;;;17.85;23.38;99790.91;4781703;29;19925;-85
2022/05/09 08:33:15;;;;;;;;;;;;;;;16.21;23.54;99792.88;4803647;29;20448;-85
2022/05/09 08:35:44;;;;;;;;;;;;;;;15.36;23.86;99797.47;4793440;29;19932;-86
2022/05/09 08:38:10;;;;;;;;;;;;;;;15.27;24.62;99789.84;4782928;30;19918;-84
2022/05/09 08:40:39;;;;;;;;;;;;;;;15.04;25.31;99793.78;4789732;30;19963;-84
2022/05/09 08:43:11;;;;;;;;;;;;;;;15.81;24.23;99797.38;4782540;29;19933;-83
2022/05/09 08:45:36;;;;;;;;;;;;;;;15.61;24.19;99790.78;4800141;29;19985;-82
2022/05/09 08:48:08;;;;;;;;;;;;;;;15.35;25.41;99790.50;4804599;29;20415;-83
2022/05/09 08:50:52;;;;;;;;;;;;;;;15.09;25.22;99801.53;4784154;30;19946;-82
2022/05/09 08:53:22;;;;;;;;;;;;;;;13.96;25.97;99809.59;4767823;29;19925;-85
2022/05/09 08:55:48;;;;;;;;;;;;;;;15.36;26.82;99797.47;4790743;29;20397;-80
2022/05/09 08:58:19;;;;;;;;;;;;;;;16.43;26.38;99793.19;4802280;29;19925;-82
2022/05/09 09:00:44;;;;;;;;;;;;;;;17.57;24.99;99782.16;4789920;29;19921;-81
2022/05/09 09:03:15;;;;;;;;;;;;;;;18.37;25.02;99783.09;4801666;29;19916;-80
2022/05/09 09:05:42;;;;;;;;;;;;;;;18.87;22.35;99786.59;4800631;29;20313;-80
2022/05/09 09:08:11;;;;;;;;;;;;;;;18.90;23.78;99791.75;4789628;29;19928;-79
2022/05/09 09:10:45;;;;;;;;;;;;;;;18.86;24.57;99797.19;4789583;29;19974;-80
2022/05/09 09:13:22;;;;;;;;;;;;;;;18.81;24.40;99801.75;4799176;29;20024;-81
2022/05/09 09:15:47;;;;;;;;;;;;;;;19.07;24.56;99793.78;4789035;29;19979;-81
2022/05/09 09:18:13;;;;;;;;;;;;;;;19.76;24.29;99796.44;4800802;29;19926;-82
2022/05/09 09:20:48;;;;;;;;;;;;;;;20.14;21.79;99792.25;4798824;29;19949;-81
2022/05/09 09:23:16;;;;;;;;;;;;;;;20.78;20.71;99775.50;4792724;29;19925;-81
2022/05/09 09:25:41;;;;;;;;;;;;;;;21.17;18.69;99769.38;4794533;29;19921;-80
2022/05/09 09:28:14;;;;;;;;;;;;;;;21.31;18.00;99773.13;4795609;29;20343;-82
2022/05/09 09:30:40;;;;;;;;;;;;;;;21.85;19.19;99772.34;4795963;29;19931;-81
2022/05/09 09:33:08;;;;;;;;;;;;;;;22.71;21.28;99774.19;4788593;29;19943;-81
2022/05/09 09:35:40;;;;;;;;;;;;;;;22.98;20.30;99767.47;4793859;29;19929;-81
2022/05/09 09:38:24;;;;;;;;;;;;;;;22.54;16.92;99789.16;4795084;29;19928;-82
2022/05/09 09:40:50;;;;;;;;;;;;;;;21.89;20.98;99800.31;4788780;29;20377;-82
2022/05/09 09:43:16;;;;;;;;;;;;;;;21.38;19.22;99807.13;4789494;29;19979;-81
2022/05/09 09:45:50;;;;;;;;;;;;;;;21.86;20.08;99796.06;4791388;29;20393;-81
2022/05/09 09:48:20;;;;;;;;;;;;;;;22.72;21.02;99797.91;4789041;29;20016;-83
2022/05/09 09:51:04;;;;;;;;;;;;;;;23.59;20.05;99811.78;4788961;29;19927;-82
2022/05/09 09:53:30;;;;;;;;;;;;;;;24.33;19.76;99803.19;4789606;29;19926;-83
2022/05/09 09:56:00;;;;;;;;;;;;;;;24.79;15.83;99786.38;4804496;29;19921;-81
2022/05/09 09:58:26;;;;;;;;;;;;;;;25.09;15.88;99802.22;4791319;29;19921;-81
2022/05/09 10:01:09;;;;;;;;;;;;;;;25.24;17.42;99790.63;4776609;29;19953;-82
2022/05/09 10:03:37;;;;;;;;;;;;;;;25.33;16.90;99789.22;4793839;29;19921;-82
2022/05/09 10:06:04;;;;;;;;;;;;;;;24.33;15.98;99792.56;4793206;29;19918;-84
2022/05/09 10:08:33;;;;;;;;;;;;;;;23.48;17.12;99786.84;4779484;30;19922;-82
2022/05/09 10:11:13;;;;;;;;;;;;;;;22.17;17.50;99779.56;4797074;29;19952;-83
2022/05/09 10:13:43;;;;;;;;;;;;;;;21.43;19.37;99797.22;4780234;29;19929;-82
2022/05/09 10:16:13;;;;;;;;;;;;;;;21.05;17.90;99803.28;4790741;29;20015;-81
2022/05/09 10:18:40;;;;;;;;;;;;;;;21.01;20.24;99822.81;4794953;29;20019;-83
2022/05/09 10:21:17;;;;;;;;;;;;;;;21.05;19.82;99799.81;4776448;29;20032;-80
2022/05/09 10:26:34;;;;;;;;;;;;;;;20.25;20.05;99805.84;4792940;29;19925;-82
2022/05/09 10:29:14;;;;;;;;;;;;;;;19.89;21.23;99816.09;4792397;29;19917;-82
2022/05/09 10:31:52;;;;;;;;;;;;;;;19.13;21.02;99817.22;4786572;29;19977;-82
2022/05/09 10:34:32;;;;;;;;;;;;;;;19.19;22.24;99818.75;4792688;29;20374;-82
2022/05/09 10:36:59;;;;;;;;;;;;;;;19.70;21.78;99808.09;4778694;29;20019;-80
2022/05/09 10:39:31;;;;;;;;;;;;;;;20.12;21.24;99825.72;4789388;29;20007;-82
2022/05/09 10:41:59;;;;;;;;;;;;;;;20.41;21.78;99821.88;4806421;29;20409;-80
2022/05/09 10:44:43;;;;;;;;;;;;;;;20.01;21.30;99827.91;4793773;29;20374;-82
2022/05/09 10:47:18;;;;;;;;;;;;;;;19.33;21.82;99834.03;4793388;29;19921;-80
2022/05/09 10:49:53;;;;;;;;;;;;;;;18.82;22.61;99842.88;4794571;29;19933;-83
2022/05/09 10:52:30;;;;;;;;;;;;;;;18.37;22.27;99833.00;4789589;29;20377;-80
2022/05/09 10:55:14;;;;;;;;;;;;;;;18.70;21.35;99836.31;4793374;29;19921;-83
2022/05/09 10:57:41;;;;;;;;;;;;;;;19.95;22.71;99828.16;4794644;29;19929;-80
2022/05/09 11:00:06;;;;;;;;;;;;;;;20.06;20.01;99821.53;4793879;29;19917;-79
2022/05/09 11:02:42;;;;;;;;;;;;;;;20.54;20.99;99823.09;4809123;29;19950;-81
2022/05/09 11:05:07;;;;;;;;;;;;;;;21.36;19.90;99833.59;4807151;29;19928;-81
2022/05/09 11:07:42;;;;;;;;;;;;;;;22.54;20.55;99825.28;4783620;29;19921;-81
2022/05/09 11:10:28;;;;;;;;;;;;;;;23.11;18.89;99815.31;4797525;29;19957;-80
2022/05/09 11:12:58;;;;;;;;;;;;;;;23.47;17.02;99809.81;4805735;29;20128;-81
2022/05/09 11:15:38;;;;;;;;;;;;;;;23.57;19.59;99818.09;4792885;29;20588;-81
2022/05/09 11:18:11;;;;;;;;;;;;;;;23.47;19.78;99832.78;4788717;29;19921;-81
2022/05/09 11:20:48;;;;;;;;;;;;;;;22.92;18.86;99825.16;4790546;29;20458;-84
2022/05/09 11:23:25;;;;;;;;;;;;;;;21.87;20.89;99853.22;4785061;29;19929;-81
2022/05/09 11:25:53;;;;;;;;;;;;;;;22.05;21.30;99856.78;4789681;29;19928;-80
2022/05/09 11:28:38;;;;;;;;;;;;;;;22.51;20.92;99858.03;4792169;29;19924;-81
2022/05/09 11:31:07;;;;;;;;;;;;;;;23.15;21.19;99874.22;4800318;29;19924;-81
2022/05/09 11:33:36;;;;;;;;;;;;;;;23.89;19.81;99855.22;4788982;29;19917;-81
2022/05/09 11:36:05;;;;;;;;;;;;;;;23.43;19.73;99868.31;4788745;29;20327;-80
2022/05/09 11:38:57;;;;;;;;;;;;;;;23.55;19.62;99865.00;4778391;29;19978;-81
2022/05/09 11:41:26;;;;;;;;;;;;;;;24.11;19.89;99887.53;4786911;29;19925;-81
2022/05/09 11:43:55;;;;;;;;;;;;;;;24.07;17.92;99862.16;4789664;29;21209;-82
2022/05/09 11:46:41;;;;;;;;;;;;;;;24.66;19.19;99851.72;4781562;29;19921;-82
2022/05/09 11:49:25;;;;;;;;;;;;;;;25.52;17.98;99856.19;4791324;29;19954;-82
2022/05/09 11:51:51;;;;;;;;;;;;;;;25.76;16.77;99852.94;4791090;29;19933;-81
2022/05/09 11:54:16;;;;;;;;;;;;;;;25.95;17.48;99863.25;4789670;29;19925;-82
2022/05/09 11:56:43;;;;;;;;;;;;;;;26.54;16.63;99859.34;4791425;29;19944;-83
2022/05/09 11:59:12;;;;;;;;;;;;;;;27.03;17.52;99849.81;4787894;29;19917;-81
2022/05/09 12:01:56;;;;;;;;;;;;;;;27.26;16.30;99853.56;4785495;29;20023;-82
2022/05/09 12:04:32;;;;;;;;;;;;;;;27.04;16.69;99857.72;4791839;29;19941;-80
2022/05/09 12:06:58;;;;;;;;;;;;;;;27.00;15.79;99836.72;4789495;29;19928;-83
2022/05/09 12:09:44;;;;;;;;;;;;;;;26.35;16.33;99856.19;4788451;29;20294;-84
2022/05/09 12:12:09;;;;;;;;;;;;;;;25.83;17.46;99836.50;4768816;29;19927;-83
2022/05/09 12:14:39;;;;;;;;;;;;;;;25.96;17.90;99841.03;4783987;29;19921;-83
2022/05/09 12:17:15;;;;;;;;;;;;;;;26.36;17.61;99844.56;4787259;29;20401;-82
2022/05/09 12:19:41;;;;;;;;;;;;;;;25.62;16.91;99834.34;4792045;29;19922;-82
2022/05/09 12:22:25;;;;;;;;;;;;;;;26.08;16.48;99837.56;4792473;29;19928;-82
2022/05/09 12:24:54;;;;;;;;;;;;;;;26.16;16.80;99832.63;4792838;29;19921;-84
2022/05/09 12:27:40;;;;;;;;;;;;;;;27.06;15.91;99833.63;4799603;29;19917;-86
2022/05/09 12:30:13;;;;;;;;;;;;;;;27.82;17.26;99827.38;4811922;29;19928;-83
2022/05/09 12:32:38;;;;;;;;;;;;;;;28.42;16.69;99833.66;4790984;29;19928;-85
2022/05/09 12:35:07;;;;;;;;;;;;;;;28.98;15.49;99825.81;4798069;29;19921;-82
2022/05/09 12:37:41;;;;;;;;;;;;;;;29.14;14.15;99842.34;4794031;29;19921;-82
2022/05/09 12:40:17;;;;;;;;;;;;;;;29.07;14.86;99849.13;4801215;29;19920;-84
2022/05/09 12:42:48;;;;;;;;;;;;;;;29.05;14.72;99846.56;4787032;30;19960;-88
2022/05/09 12:45:13;;;;;;;;;;;;;;;28.58;14.67;99826.16;4800478;29;19921;-85
2022/05/09 12:47:40;;;;;;;;;;;;;;;26.94;14.82;99835.34;4785920;29;19928;-83
2022/05/09 12:50:26;;;;;;;;;;;;;;;27.18;16.54;99824.81;4793735;29;19921;-85
2022/05/09 12:53:00;;;;;;;;;;;;;;;27.78;15.92;99832.09;4790544;29;19925;-84
2022/05/09 12:58:21;;;;;;;;;;;;;;;25.87;16.92;99825.66;4795163;29;19921;-83
2022/05/09 13:00:48;;;;;;;;;;;;;;;25.02;16.83;99851.31;4783301;29;20011;-86
2022/05/09 13:03:14;;;;;;;;;;;;;;;24.27;17.18;99845.94;4778886;29;19982;-86
2022/05/09 13:05:40;;;;;;;;;;;;;;;23.83;18.20;99846.69;4795385;29;19920;-85
2022/05/09 13:08:06;;;;;;;;;;;;;;;24.00;18.39;99850.16;4793381;29;19917;-84
2022/05/09 13:10:32;;;;;;;;;;;;;;;23.77;18.62;99856.75;4777103;29;20412;-81